Terminal Aerodrome Forecast
Issued by NWS

Current Version | Previous Version | Graphics & Text | Print | Product List | Glossary On
Versions: 1 2 3 4 5 6 7 8 9 10 11 12 13 14 15 16 17 18 19 20
000
FTUS41 KILN 250700 AAA
TAFLCK
TAF AMD
KLCK 250716Z 2507/2606 04003KT P6SM SCT040 BKN200
     FM251300 14005KT P6SM SCT060
     FM260000 12003KT P6SM SCT250=

USA.gov is the U.S. government's official web portal to all federal, state and local government web resources and services.